Forside
METAR-TAF:

METAR-TAF

Lufthavne :

South St. Paul Municipal Airport (Richard E. Fleming Field)

South St. Paul, Minnesota, USA

Breddekreds: 44-51-26N, længdekreds: 093-01-58W, højde: 250 m

Aktuelle vejr

Denne rapport blev lavet for 28 minutter siden, kl. 19:55 UTC
Vind 8 kt fra sydsydøst
Temperatur 4°C
Fugtighed 65%
Tryk 1013 hPa
Sigt: 16.1 km
skyfri

METAR: KSGS 221955Z AUTO 16008KT 10SM CLR 04/M02 A2992 RMK AO2 T00371023

Tid: 14:23 (20:23 UTC)


TAF: fraværende

Vejrobservationer og prognoser fra mere end 4000 lufthavne (METAR og TAF).

De gule og røde prikker repræsenterer de meteorologiske stationer.

Flyt musen over at se navnet på stationen.

Så klik over at se vejr observationer og prognoser.

At skifte det kort: Klik på de grønne knapper med et sort kors for at zoome ind; på den grønne knap med en bindestreg for at zoome ud; eller på de grønne pile for tilstødende kort.


METAR-TAF: